This is the latest recevied weather packets stored in our database for station/object KD4VIF. If no packets are shown the sender has not sent any weather packets the latest 1 day(s).
| Time | Temp. | Humidity | Pressure | Rain* | Wind** | Luminosity | Snow |
|---|---|---|---|---|---|---|---|
| 1778096803 | 23.89° C | 100% | 1012.1 hPa | 0 mm | 0 m/s | - | - |
| 1778095602 | 23.33° C | 100% | 1012.1 hPa | 0 mm | 0.45 m/s, 151° | - | - |
| 1778095002 | 23.89° C | 100% | 1012.6 hPa | 0 mm | 1.34 m/s, 291° | - | - |
| 1778092902 | 23.89° C | 100% | 1013.8 hPa | 0 mm | 2.68 m/s, 299° | - | - |
| 1778092302 | 23.89° C | 100% | 1013.4 hPa | 0 mm | 1.34 m/s, 316° | - | - |
| 1778090202 | 23.33° C | 100% | 1013.7 hPa | 0 mm | 0.89 m/s, 331° | - | - |
| 1778089602 | 23.33° C | 100% | 1014.1 hPa | 0 mm | 1.79 m/s, 315° | - | - |
| 1778089002 | 23.33° C | 100% | 1014 hPa | 0 mm | 0.89 m/s, 240° | - | - |
| 1778088401 | 23.33° C | 100% | 1014 hPa | 0 mm | 0.45 m/s, 306° | - | - |
| 1778088102 | 22.78° C | 100% | 1014.1 hPa | 0 mm | 0.45 m/s, 254° | - | - |
| 1778083001 | 22.22° C | 100% | 1014.2 hPa | 0 mm | 0.89 m/s, 188° | - | - |
| 1778082401 | 22.22° C | 100% | 1014.3 hPa | 0 mm | 0.45 m/s, 338° | - | - |
| 1778081501 | 22.22° C | 100% | 1014.2 hPa | 0 mm | 0.45 m/s, 90° | - | - |
| 1778080602 | 21.67° C | 100% | 1014.2 hPa | 0 mm | 0 m/s | - | - |
| 1778079401 | 20.56° C | 100% | 1014.3 hPa | 0 mm | 0 m/s | - | - |
| 1778078201 | 20° C | 100% | 1014.3 hPa | 0 mm | 0.45 m/s, 66° | - | - |
| 1778077902 | 20° C | 100% | 1014.3 hPa | 0 mm | 0.45 m/s, 50° | - | - |
| 1778074760 | 19.44° C | 100% | 1014.6 hPa | 0 mm | 0 m/s | - | - |
| 1778074601 | 19.44° C | 100% | 1014.6 hPa | 0 mm | 0 m/s | - | - |
| 1778074046 | 19.44° C | 100% | 1014.6 hPa | 0 mm | 0 m/s | - | - |
| 1778074001 | 19.44° C | 100% | 1014.6 hPa | 0 mm | 0 m/s | - | - |
| 1778073402 | 18.89° C | 100% | 1014.8 hPa | 0 mm | 0.45 m/s, 94° | - | - |
| 1778072801 | 18.89° C | 100% | 1014.6 hPa | 0 mm | 0.45 m/s, 265° | - | - |
| 1778072501 | 18.89° C | 100% | 1014.8 hPa | 0 mm | 0 m/s | - | - |
| 1778072201 | 18.89° C | 100% | 1014.8 hPa | 0 mm | 0.89 m/s, 284° | - | - |
* Rain latest hour (hover to see other rain measurements)
** Current wind speed in m/s (hover to see current wind gust speed)